Time;durP1;ratioP1;P1;durP2;ratioP2;P2;SDS_P1;SDS_P2;PMS_P1;PMS_P2;Temp;Humidity;BMP_temperature;BMP_pressure;BME280_temperature;BME280_humidity;BME280_pressure;Samples;Min_cycle;Max_cycle;Signal;HPM_P1;HPM_P2
2022/08/24 00:02:06;;;;;;;13.88;11.93;;;;;;;;;;5050927;28;20040;-71
2022/08/24 00:04:32;;;;;;;13.80;11.35;;;;;;;;;;5051187;28;20129;-71
2022/08/24 00:06:58;;;;;;;16.20;12.63;;;;;;;;;;5032088;28;20073;-71
2022/08/24 00:09:24;;;;;;;20.58;13.98;;;;;;;;;;5032925;28;20037;-71
2022/08/24 00:11:50;;;;;;;15.82;13.43;;;;;;;;;;5032157;28;20102;-72
2022/08/24 00:14:16;;;;;;;14.65;12.55;;;;;;;;;;5051127;28;20051;-71
2022/08/24 00:16:42;;;;;;;16.05;13.00;;;;;;;;;;5050651;28;20478;-72
2022/08/24 00:19:09;;;;;;;17.50;14.35;;;;;;;;;;5049734;28;20112;-71
2022/08/24 00:21:35;;;;;;;17.50;14.88;;;;;;;;;;5050815;28;20048;-71
2022/08/24 00:24:01;;;;;;;17.30;15.00;;;;;;;;;;5032286;28;20053;-72
2022/08/24 00:26:28;;;;;;;17.63;14.25;;;;;;;;;;5050879;28;20033;-71
2022/08/24 00:28:54;;;;;;;17.67;15.13;;;;;;;;;;5032035;28;20037;-71
2022/08/24 00:31:20;;;;;;;16.55;14.48;;;;;;;;;;5050554;28;20055;-72
2022/08/24 00:33:46;;;;;;;16.23;13.93;;;;;;;;;;5032409;28;20037;-71
2022/08/24 00:36:13;;;;;;;18.17;13.93;;;;;;;;;;5032720;28;20551;-72
2022/08/24 00:38:39;;;;;;;17.98;14.30;;;;;;;;;;5031835;28;20047;-71
2022/08/24 00:41:05;;;;;;;17.17;13.82;;;;;;;;;;5050513;28;20036;-72
2022/08/24 00:43:32;;;;;;;16.08;13.70;;;;;;;;;;5049513;28;20045;-72
2022/08/24 00:46:14;;;;;;;18.30;13.73;;;;;;;;;;5031967;28;20048;-71
2022/08/24 00:48:42;;;;;;;16.83;13.13;;;;;;;;;;5048273;28;20448;-71
2022/08/24 00:51:11;;;;;;;16.77;13.48;;;;;;;;;;5049308;28;20036;-72
2022/08/24 00:53:45;;;;;;;20.02;16.02;;;;;;;;;;5032360;28;20694;-72
2022/08/24 00:56:14;;;;;;;16.70;14.35;;;;;;;;;;5031368;28;20033;-71
2022/08/24 00:58:43;;;;;;;18.25;14.50;;;;;;;;;;5031715;28;20045;-72
2022/08/24 01:01:12;;;;;;;18.98;16.35;;;;;;;;;;5032350;28;20350;-72
2022/08/24 01:03:38;;;;;;;22.20;16.55;;;;;;;;;;5031110;28;20068;-72
2022/08/24 01:06:04;;;;;;;20.92;16.70;;;;;;;;;;5032223;28;20079;-72
2022/08/24 01:08:30;;;;;;;19.23;16.25;;;;;;;;;;5040818;28;20040;-71
2022/08/24 01:10:58;;;;;;;18.38;15.10;;;;;;;;;;5032420;28;20165;-71
2022/08/24 01:13:25;;;;;;;23.45;16.50;;;;;;;;;;5049436;28;20037;-71
2022/08/24 01:15:52;;;;;;;22.45;17.98;;;;;;;;;;5016868;28;20087;-72
2022/08/24 01:21:26;;;;;;;19.00;15.18;;;;;;;;;;5032020;28;20048;-71
2022/08/24 01:23:53;;;;;;;22.23;17.92;;;;;;;;;;5049359;28;20112;-71
2022/08/24 01:26:22;;;;;;;19.65;14.55;;;;;;;;;;5049583;28;20052;-72
2022/08/24 01:28:51;;;;;;;15.90;14.20;;;;;;;;;;5017943;28;20045;-71
2022/08/24 01:31:21;;;;;;;17.55;14.63;;;;;;;;;;5067534;22;20040;-84
2022/08/24 01:33:48;;;;;;;17.27;14.38;;;;;;;;;;5037013;28;20049;-83
2022/08/24 01:36:18;;;;;;;18.80;16.65;;;;;;;;;;5022304;28;20052;-83
2022/08/24 01:38:46;;;;;;;21.15;16.75;;;;;;;;;;5019678;28;20094;-83
2022/08/24 01:41:12;;;;;;;20.33;16.73;;;;;;;;;;4994364;28;20037;-83
2022/08/24 01:43:38;;;;;;;18.60;16.52;;;;;;;;;;4997720;28;21043;-83
2022/08/24 01:46:04;;;;;;;20.33;16.13;;;;;;;;;;5013973;28;20075;-82
2022/08/24 01:48:30;;;;;;;20.00;17.02;;;;;;;;;;5000008;28;20130;-82
2022/08/24 01:50:56;;;;;;;18.02;15.38;;;;;;;;;;5014188;28;20044;-83
2022/08/24 01:53:22;;;;;;;22.15;18.05;;;;;;;;;;5015612;28;20069;-83
2022/08/24 01:55:49;;;;;;;19.00;15.82;;;;;;;;;;5020268;28;20042;-83
2022/08/24 01:58:15;;;;;;;19.90;16.63;;;;;;;;;;5002515;28;20041;-83
2022/08/24 02:00:41;;;;;;;24.33;17.98;;;;;;;;;;5007719;28;20042;-84
2022/08/24 02:03:07;;;;;;;20.40;16.73;;;;;;;;;;5027034;28;20068;-84
2022/08/24 02:05:34;;;;;;;21.02;18.38;;;;;;;;;;5028599;28;20056;-83
2022/08/24 02:08:00;;;;;;;21.45;17.20;;;;;;;;;;5004209;28;20468;-83
2022/08/24 02:10:26;;;;;;;22.10;19.02;;;;;;;;;;4997320;28;20073;-83
2022/08/24 02:12:59;;;;;;;20.75;18.23;;;;;;;;;;4989099;28;20379;-83
2022/08/24 02:15:30;;;;;;;22.33;18.08;;;;;;;;;;5004868;28;20427;-84
2022/08/24 02:17:57;;;;;;;20.75;18.58;;;;;;;;;;5016210;28;20493;-83
2022/08/24 02:20:23;;;;;;;19.55;17.02;;;;;;;;;;5001292;28;20045;-83
2022/08/24 02:22:53;;;;;;;19.88;17.02;;;;;;;;;;4996765;28;20087;-83
2022/08/24 02:25:19;;;;;;;18.02;15.65;;;;;;;;;;4997514;28;20046;-82
2022/08/24 02:27:45;;;;;;;18.92;17.02;;;;;;;;;;4996206;28;20337;-83
2022/08/24 02:30:11;;;;;;;20.27;17.00;;;;;;;;;;4978735;28;20052;-84
2022/08/24 02:32:38;;;;;;;19.80;16.35;;;;;;;;;;4998481;28;20533;-83
2022/08/24 02:35:04;;;;;;;19.33;17.27;;;;;;;;;;4983518;28;20033;-83
2022/08/24 02:37:30;;;;;;;20.60;17.38;;;;;;;;;;5015085;28;20603;-83
2022/08/24 02:39:56;;;;;;;18.67;15.55;;;;;;;;;;5015046;28;20052;-83
2022/08/24 02:42:22;;;;;;;20.15;16.73;;;;;;;;;;5000426;28;20037;-83
2022/08/24 02:44:48;;;;;;;20.70;17.48;;;;;;;;;;4982974;28;20136;-83
2022/08/24 02:47:14;;;;;;;20.08;17.45;;;;;;;;;;4977962;28;20045;-82
2022/08/24 02:49:41;;;;;;;19.25;16.38;;;;;;;;;;5016018;28;20088;-83
2022/08/24 02:52:07;;;;;;;20.20;16.98;;;;;;;;;;4997777;28;20046;-82
2022/08/24 02:54:33;;;;;;;17.67;15.20;;;;;;;;;;4997731;28;20098;-83
2022/08/24 02:56:59;;;;;;;21.48;16.65;;;;;;;;;;5015506;28;20046;-82
2022/08/24 02:59:25;;;;;;;20.30;16.35;;;;;;;;;;5004843;28;20037;-83
2022/08/24 03:01:51;;;;;;;16.38;12.55;;;;;;;;;;5013983;28;20041;-82
2022/08/24 03:04:18;;;;;;;17.25;14.90;;;;;;;;;;4984157;28;20112;-83
2022/08/24 03:06:44;;;;;;;16.88;13.38;;;;;;;;;;4996658;28;20091;-83
2022/08/24 03:09:10;;;;;;;16.45;12.30;;;;;;;;;;4992926;28;20042;-84
2022/08/24 03:11:37;;;;;;;11.32;10.00;;;;;;;;;;5014737;28;20064;-83
2022/08/24 03:14:03;;;;;;;12.23;10.93;;;;;;;;;;5015798;28;20529;-82
2022/08/24 03:16:30;;;;;;;13.93;11.20;;;;;;;;;;4990907;28;20038;-82
2022/08/24 03:18:56;;;;;;;12.70;11.27;;;;;;;;;;4999436;28;20041;-83
2022/08/24 03:21:22;;;;;;;14.88;12.85;;;;;;;;;;4996064;28;20042;-83
2022/08/24 03:23:48;;;;;;;14.45;12.95;;;;;;;;;;5013393;28;20096;-83
2022/08/24 03:26:14;;;;;;;16.35;14.50;;;;;;;;;;4994049;28;20046;-83
2022/08/24 03:28:40;;;;;;;17.27;14.38;;;;;;;;;;5003252;28;20120;-83
2022/08/24 03:31:07;;;;;;;12.98;10.60;;;;;;;;;;5008954;28;20115;-84
2022/08/24 03:33:33;;;;;;;16.80;13.95;;;;;;;;;;5011982;28;20077;-83
2022/08/24 03:35:59;;;;;;;16.02;11.10;;;;;;;;;;5007769;28;20049;-84
2022/08/24 03:38:25;;;;;;;16.55;14.30;;;;;;;;;;4984785;28;20038;-84
2022/08/24 03:40:51;;;;;;;19.60;16.95;;;;;;;;;;4988002;28;20059;-84
2022/08/24 03:46:05;;;;;;;30.92;23.67;;;;;;;;;;4990570;28;20049;-84
2022/08/24 03:48:31;;;;;;;32.83;25.45;;;;;;;;;;5016463;28;20401;-83
2022/08/24 03:50:57;;;;;;;34.30;28.00;;;;;;;;;;5016585;28;20037;-83
2022/08/24 03:53:23;;;;;;;32.05;25.55;;;;;;;;;;5016445;28;20042;-83
2022/08/24 03:55:49;;;;;;;30.70;26.10;;;;;;;;;;4980019;28;20041;-83
2022/08/24 03:58:16;;;;;;;30.67;25.35;;;;;;;;;;5019103;28;20038;-84
2022/08/24 04:00:42;;;;;;;28.90;24.33;;;;;;;;;;4983713;28;20459;-84
2022/08/24 04:03:12;;;;;;;27.95;22.98;;;;;;;;;;5021448;28;20056;-84
2022/08/24 04:05:39;;;;;;;32.03;25.98;;;;;;;;;;4980193;28;20064;-84
2022/08/24 04:08:05;;;;;;;28.95;23.95;;;;;;;;;;5018932;28;20045;-84
2022/08/24 04:10:31;;;;;;;25.75;21.88;;;;;;;;;;4997959;28;20038;-84
2022/08/24 04:13:00;;;;;;;29.77;24.98;;;;;;;;;;5003598;28;20593;-84
2022/08/24 04:15:26;;;;;;;33.42;26.15;;;;;;;;;;5001285;28;20045;-84
2022/08/24 04:17:52;;;;;;;33.08;29.05;;;;;;;;;;5001059;28;20052;-84
2022/08/24 04:20:18;;;;;;;35.47;29.08;;;;;;;;;;5004221;28;20042;-84
2022/08/24 04:22:44;;;;;;;34.72;28.75;;;;;;;;;;5002331;28;20050;-83
2022/08/24 04:25:11;;;;;;;35.63;28.58;;;;;;;;;;4997073;28;20057;-83
2022/08/24 04:27:38;;;;;;;34.88;27.13;;;;;;;;;;4980932;28;20436;-84
2022/08/24 04:30:05;;;;;;;35.72;26.30;;;;;;;;;;4976396;28;20038;-84
2022/08/24 04:32:31;;;;;;;27.83;23.10;;;;;;;;;;4994758;28;20045;-83
2022/08/24 04:34:58;;;;;;;29.75;24.92;;;;;;;;;;5008899;28;20037;-84
2022/08/24 04:37:24;;;;;;;27.08;22.13;;;;;;;;;;4991446;28;20108;-83
2022/08/24 04:39:50;;;;;;;25.88;21.25;;;;;;;;;;4997733;28;20045;-84
2022/08/24 04:42:16;;;;;;;22.05;18.90;;;;;;;;;;4993034;28;20050;-83
2022/08/24 04:44:43;;;;;;;23.80;18.98;;;;;;;;;;4975625;28;20046;-84
2022/08/24 04:47:09;;;;;;;22.77;20.10;;;;;;;;;;5018427;28;20045;-85
2022/08/24 04:49:37;;;;;;;24.77;20.92;;;;;;;;;;5021688;28;20060;-84
2022/08/24 04:52:03;;;;;;;24.67;20.63;;;;;;;;;;4999004;28;20041;-85
2022/08/24 04:54:30;;;;;;;29.08;21.50;;;;;;;;;;4989779;28;20044;-86
2022/08/24 04:56:56;;;;;;;22.17;18.95;;;;;;;;;;4993513;28;20519;-85
2022/08/24 04:59:22;;;;;;;24.02;20.42;;;;;;;;;;4987476;28;20046;-84
2022/08/24 05:01:49;;;;;;;26.48;21.08;;;;;;;;;;5002595;28;20041;-84
2022/08/24 05:04:15;;;;;;;27.63;22.30;;;;;;;;;;4990146;28;20068;-85
2022/08/24 05:06:49;;;;;;;24.45;19.42;;;;;;;;;;4995345;28;20456;-84
2022/08/24 05:09:15;;;;;;;25.25;20.02;;;;;;;;;;4991001;28;20042;-84
2022/08/24 05:11:41;;;;;;;20.83;18.63;;;;;;;;;;4992426;28;20052;-84
2022/08/24 05:14:07;;;;;;;20.95;18.73;;;;;;;;;;4997187;28;20038;-85
2022/08/24 05:16:36;;;;;;;24.15;20.27;;;;;;;;;;5008587;28;20045;-84
2022/08/24 05:19:02;;;;;;;20.30;16.73;;;;;;;;;;4989493;28;20354;-84
2022/08/24 05:21:29;;;;;;;23.98;21.17;;;;;;;;;;4981315;28;20033;-84
2022/08/24 05:23:59;;;;;;;25.85;22.75;;;;;;;;;;5006749;28;20042;-85
2022/08/24 05:26:28;;;;;;;28.17;21.83;;;;;;;;;;5006765;28;20049;-85
2022/08/24 05:29:04;;;;;;;27.60;22.83;;;;;;;;;;4967683;28;20493;-84
2022/08/24 05:31:31;;;;;;;23.65;20.95;;;;;;;;;;4992159;22;20061;-52
2022/08/24 05:33:58;;;;;;;26.63;21.00;;;;;;;;;;5048924;28;20041;-53
2022/08/24 05:36:25;;;;;;;29.27;25.00;;;;;;;;;;5041376;28;20030;-56
2022/08/24 05:38:53;;;;;;;27.83;23.15;;;;;;;;;;5038050;28;20030;-53
2022/08/24 05:41:19;;;;;;;35.00;29.33;;;;;;;;;;5041002;28;20130;-53
2022/08/24 05:43:45;;;;;;;32.72;28.45;;;;;;;;;;5045017;28;20068;-53
2022/08/24 05:46:12;;;;;;;36.25;29.00;;;;;;;;;;5050131;28;20124;-55
2022/08/24 05:48:38;;;;;;;29.30;26.10;;;;;;;;;;5051250;28;20051;-57
2022/08/24 05:51:06;;;;;;;28.77;24.80;;;;;;;;;;5050657;28;20111;-57
2022/08/24 05:53:32;;;;;;;35.58;25.15;;;;;;;;;;5051177;28;20395;-57
2022/08/24 05:55:58;;;;;;;27.90;24.35;;;;;;;;;;5052356;28;20452;-58
2022/08/24 05:58:24;;;;;;;28.52;25.30;;;;;;;;;;5049452;28;20040;-56
2022/08/24 06:00:50;;;;;;;27.95;22.20;;;;;;;;;;5032002;28;20075;-58
2022/08/24 06:03:16;;;;;;;33.50;27.77;;;;;;;;;;5049985;28;20088;-51
2022/08/24 06:05:43;;;;;;;30.08;26.80;;;;;;;;;;5049964;28;20518;-55
2022/08/24 06:08:09;;;;;;;33.15;28.23;;;;;;;;;;5049520;28;20087;-58
2022/08/24 06:10:40;;;;;;;31.15;27.15;;;;;;;;;;5050900;28;20170;-59
2022/08/24 06:13:07;;;;;;;32.30;27.17;;;;;;;;;;5049526;28;20045;-56
2022/08/24 06:15:33;;;;;;;32.22;27.15;;;;;;;;;;5048416;28;20040;-50
2022/08/24 06:18:00;;;;;;;33.90;28.33;;;;;;;;;;5050140;28;20033;-58
2022/08/24 06:20:26;;;;;;;33.72;28.23;;;;;;;;;;5033864;28;20399;-57
2022/08/24 06:22:52;;;;;;;31.98;27.25;;;;;;;;;;5033379;28;20122;-54
2022/08/24 06:28:03;;;;;;;30.33;26.83;;;;;;;;;;5051550;28;20037;-54
2022/08/24 06:30:29;;;;;;;28.65;25.55;;;;;;;;;;5046894;28;20375;-55
2022/08/24 06:32:58;;;;;;;29.08;26.10;;;;;;;;;;5043643;28;20063;-56
2022/08/24 06:35:24;;;;;;;32.95;28.45;;;;;;;;;;5046702;28;20037;-55
2022/08/24 06:37:50;;;;;;;34.30;29.13;;;;;;;;;;5042753;28;20414;-52
2022/08/24 06:40:19;;;;;;;31.50;28.10;;;;;;;;;;5022571;28;20376;-53
2022/08/24 06:42:45;;;;;;;32.40;28.58;;;;;;;;;;5036926;28;20088;-54
2022/08/24 06:45:11;;;;;;;34.90;28.35;;;;;;;;;;5039219;28;20044;-55
2022/08/24 06:47:37;;;;;;;33.88;27.77;;;;;;;;;;5050079;28;20592;-56
2022/08/24 06:50:05;;;;;;;30.60;26.02;;;;;;;;;;5042781;28;20036;-57
2022/08/24 06:52:31;;;;;;;28.13;23.23;;;;;;;;;;5037545;28;20079;-59
2022/08/24 06:54:58;;;;;;;29.65;26.45;;;;;;;;;;5042463;28;20080;-54
2022/08/24 06:57:24;;;;;;;27.83;24.90;;;;;;;;;;5038772;28;20455;-55
2022/08/24 06:59:50;;;;;;;33.95;27.98;;;;;;;;;;5036253;28;20069;-55
2022/08/24 07:02:17;;;;;;;31.65;28.25;;;;;;;;;;5046201;28;20076;-54
2022/08/24 07:04:44;;;;;;;28.90;25.45;;;;;;;;;;5041441;28;20538;-52
2022/08/24 07:07:10;;;;;;;30.33;26.17;;;;;;;;;;5046418;28;20375;-55
2022/08/24 07:09:36;;;;;;;28.02;25.02;;;;;;;;;;5041498;28;20094;-54
2022/08/24 07:12:02;;;;;;;27.83;24.77;;;;;;;;;;5047227;28;20041;-54
2022/08/24 07:14:28;;;;;;;29.33;25.83;;;;;;;;;;5031645;28;20502;-56
2022/08/24 07:16:55;;;;;;;29.05;25.52;;;;;;;;;;5042009;28;20040;-54
2022/08/24 07:19:21;;;;;;;32.47;25.50;;;;;;;;;;5040599;28;20041;-55
2022/08/24 07:21:47;;;;;;;32.90;26.90;;;;;;;;;;5032199;28;20033;-54
2022/08/24 07:24:13;;;;;;;27.38;24.48;;;;;;;;;;5040011;28;20446;-57
2022/08/24 07:26:39;;;;;;;35.53;26.05;;;;;;;;;;5045141;28;20087;-55
2022/08/24 07:29:09;;;;;;;28.17;24.13;;;;;;;;;;5030319;28;20402;-53
2022/08/24 07:31:36;;;;;;;26.52;21.75;;;;;;;;;;5030970;28;20230;-55
2022/08/24 07:34:03;;;;;;;26.67;21.83;;;;;;;;;;5029290;28;20065;-59
2022/08/24 07:36:29;;;;;;;26.45;21.15;;;;;;;;;;5022416;28;20510;-55
2022/08/24 07:38:56;;;;;;;24.23;21.15;;;;;;;;;;5040595;28;20049;-55
2022/08/24 07:41:24;;;;;;;22.67;18.35;;;;;;;;;;5034187;28;20087;-55
2022/08/24 07:43:50;;;;;;;22.52;19.38;;;;;;;;;;5041024;28;20127;-54
2022/08/24 07:46:17;;;;;;;17.30;15.40;;;;;;;;;;5045146;28;20399;-53
2022/08/24 07:48:43;;;;;;;18.33;15.02;;;;;;;;;;5046024;28;20048;-54
2022/08/24 07:51:11;;;;;;;17.33;13.43;;;;;;;;;;5038110;28;20044;-52
2022/08/24 07:53:37;;;;;;;18.80;13.32;;;;;;;;;;5045545;28;20041;-54
2022/08/24 07:56:04;;;;;;;17.23;14.07;;;;;;;;;;5048212;28;20064;-56
2022/08/24 07:58:30;;;;;;;17.85;13.77;;;;;;;;;;5027756;28;20033;-54
2022/08/24 08:00:56;;;;;;;16.15;13.38;;;;;;;;;;5045925;28;20029;-54
2022/08/24 08:03:25;;;;;;;16.77;13.02;;;;;;;;;;5044457;28;20083;-57
2022/08/24 08:06:01;;;;;;;14.38;12.02;;;;;;;;;;5045094;28;20064;-57
2022/08/24 08:08:28;;;;;;;12.95;10.55;;;;;;;;;;5048314;28;20124;-55
2022/08/24 08:10:56;;;;;;;15.35;12.02;;;;;;;;;;5047680;28;20037;-55
2022/08/24 08:13:22;;;;;;;16.08;12.27;;;;;;;;;;5047539;28;20333;-56
2022/08/24 08:15:49;;;;;;;16.70;12.10;;;;;;;;;;5046768;28;20623;-58
2022/08/24 08:18:16;;;;;;;14.88;12.57;;;;;;;;;;5046912;28;20047;-57
2022/08/24 08:20:42;;;;;;;17.00;11.57;;;;;;;;;;5043863;28;20068;-57
2022/08/24 08:25:56;;;;;;;15.20;12.55;;;;;;;;;;5038166;28;20399;-50
2022/08/24 08:28:22;;;;;;;15.38;10.80;;;;;;;;;;5047991;28;20094;-50
2022/08/24 08:30:48;;;;;;;10.90;9.15;;;;;;;;;;5046547;28;20533;-57
2022/08/24 08:33:15;;;;;;;14.25;9.90;;;;;;;;;;5048100;28;20045;-58
2022/08/24 08:35:43;;;;;;;11.90;8.00;;;;;;;;;;5042621;28;20495;-57
2022/08/24 08:38:09;;;;;;;13.02;9.70;;;;;;;;;;5044850;28;20043;-54
2022/08/24 08:40:42;;;;;;;12.65;8.85;;;;;;;;;;5045642;28;20235;-54
2022/08/24 08:43:17;;;;;;;11.82;9.15;;;;;;;;;;5039844;28;20064;-56
2022/08/24 08:45:54;;;;;;;12.38;9.00;;;;;;;;;;5041797;28;20041;-57
2022/08/24 08:48:20;;;;;;;10.98;8.20;;;;;;;;;;5039594;28;20116;-54
2022/08/24 08:51:03;;;;;;;15.00;9.77;;;;;;;;;;5037176;28;20502;-57
2022/08/24 08:53:48;;;;;;;10.70;8.27;;;;;;;;;;5028804;28;20049;-58
2022/08/24 08:56:23;;;;;;;11.57;8.07;;;;;;;;;;5045852;28;20033;-60
2022/08/24 08:58:52;;;;;;;13.35;8.18;;;;;;;;;;5039524;28;20185;-56
2022/08/24 09:01:18;;;;;;;10.77;8.07;;;;;;;;;;5034328;28;20052;-50
2022/08/24 09:03:59;;;;;;;10.75;7.70;;;;;;;;;;5041814;28;20044;-53
2022/08/24 09:06:34;;;;;;;10.48;7.82;;;;;;;;;;5041789;28;20033;-56
2022/08/24 09:09:15;;;;;;;13.82;8.50;;;;;;;;;;5038665;28;20036;-57
2022/08/24 09:11:59;;;;;;;11.63;8.80;;;;;;;;;;5038330;28;20510;-55
2022/08/24 09:14:31;;;;;;;14.95;10.50;;;;;;;;;;5042520;28;20088;-57
2022/08/24 09:17:16;;;;;;;12.45;9.18;;;;;;;;;;5047739;28;20265;-58
2022/08/24 09:19:58;;;;;;;15.75;10.13;;;;;;;;;;5019244;28;20052;-53
2022/08/24 09:22:24;;;;;;;10.50;8.63;;;;;;;;;;5043254;28;20108;-55
2022/08/24 09:24:53;;;;;;;13.23;10.18;;;;;;;;;;5044921;28;20041;-54
2022/08/24 09:27:38;;;;;;;11.38;9.13;;;;;;;;;;5035327;28;20033;-55
2022/08/24 09:30:17;;;;;;;11.75;9.32;;;;;;;;;;5039874;28;20043;-55
2022/08/24 09:32:43;;;;;;;11.73;9.13;;;;;;;;;;5044429;28;20037;-59
2022/08/24 09:35:20;;;;;;;12.93;9.57;;;;;;;;;;5043913;28;20037;-57
2022/08/24 09:37:58;;;;;;;14.70;11.00;;;;;;;;;;5046665;28;20041;-58
2022/08/24 09:40:39;;;;;;;11.38;8.52;;;;;;;;;;5044108;28;20159;-57
2022/08/24 09:43:08;;;;;;;9.52;7.05;;;;;;;;;;5036269;28;20041;-57
2022/08/24 09:45:52;;;;;;;9.05;6.82;;;;;;;;;;5045332;28;20072;-58
2022/08/24 09:48:19;;;;;;;10.15;6.05;;;;;;;;;;5036558;28;20049;-58
2022/08/24 09:51:00;;;;;;;11.20;6.55;;;;;;;;;;5046281;28;20037;-57
2022/08/24 09:53:45;;;;;;;10.40;5.82;;;;;;;;;;5039651;28;20041;-59
2022/08/24 09:56:30;;;;;;;8.77;6.18;;;;;;;;;;5041685;28;20052;-54
2022/08/24 09:59:15;;;;;;;9.02;4.03;;;;;;;;;;5040973;28;20033;-56
2022/08/24 10:01:41;;;;;;;7.20;4.85;;;;;;;;;;5043368;28;20037;-57
2022/08/24 10:04:11;;;;;;;8.32;4.13;;;;;;;;;;5046817;28;20036;-57
2022/08/24 10:06:52;;;;;;;8.07;3.72;;;;;;;;;;5031339;28;20123;-59
2022/08/24 10:09:37;;;;;;;7.20;4.03;;;;;;;;;;5026979;28;20076;-53
2022/08/24 10:12:09;;;;;;;6.63;3.38;;;;;;;;;;5043665;28;20471;-53
2022/08/24 10:14:55;;;;;;;7.43;3.58;;;;;;;;;;5046632;28;20048;-55
2022/08/24 10:17:30;;;;;;;6.50;3.30;;;;;;;;;;5046625;28;20040;-55
2022/08/24 10:20:04;;;;;;;6.95;3.15;;;;;;;;;;5041026;28;20069;-55
2022/08/24 10:22:56;;;;;;;6.90;3.17;;;;;;;;;;5037148;28;20033;-54
2022/08/24 10:25:23;;;;;;;8.20;3.55;;;;;;;;;;5030205;28;20045;-55
2022/08/24 10:27:52;;;;;;;6.80;3.45;;;;;;;;;;5037360;28;20049;-57
2022/08/24 10:30:31;;;;;;;7.30;2.88;;;;;;;;;;5046071;28;20257;-52
2022/08/24 10:33:08;;;;;;;5.90;3.28;;;;;;;;;;5034160;28;20525;-54
2022/08/24 10:35:37;;;;;;;7.97;3.83;;;;;;;;;;5044621;28;20033;-55
2022/08/24 10:41:21;;;;;;;5.97;2.70;;;;;;;;;;5045411;28;20045;-52
2022/08/24 10:44:06;;;;;;;6.38;3.42;;;;;;;;;;5040335;28;20059;-57
2022/08/24 10:46:52;;;;;;;6.78;3.15;;;;;;;;;;5042235;28;20041;-54
2022/08/24 10:49:36;;;;;;;5.78;2.90;;;;;;;;;;5048287;28;20041;-58
2022/08/24 10:52:02;;;;;;;5.45;3.22;;;;;;;;;;5049651;28;20048;-57
2022/08/24 10:54:32;;;;;;;5.57;3.38;;;;;;;;;;5051159;28;20048;-60
2022/08/24 10:57:07;;;;;;;7.32;2.83;;;;;;;;;;5048839;28;20086;-58
2022/08/24 10:59:39;;;;;;;5.45;2.47;;;;;;;;;;5050564;28;20068;-55
2022/08/24 11:02:08;;;;;;;7.05;3.55;;;;;;;;;;5050816;28;20041;-55
2022/08/24 11:04:35;;;;;;;6.05;2.13;;;;;;;;;;5050716;28;20509;-52
2022/08/24 11:07:21;;;;;;;5.20;1.95;;;;;;;;;;5049603;28;20453;-54
2022/08/24 11:09:47;;;;;;;6.65;2.63;;;;;;;;;;5049549;28;20175;-56
2022/08/24 11:12:36;;;;;;;6.05;2.50;;;;;;;;;;5051469;28;20040;-55
2022/08/24 11:15:05;;;;;;;4.65;1.83;;;;;;;;;;5039733;28;20127;-55
2022/08/24 11:17:32;;;;;;;5.05;2.33;;;;;;;;;;5047409;28;20033;-51
2022/08/24 11:19:58;;;;;;;7.07;2.92;;;;;;;;;;5029488;28;20060;-55
2022/08/24 11:22:27;;;;;;;6.90;3.17;;;;;;;;;;5028925;28;20041;-57
2022/08/24 11:24:57;;;;;;;5.65;3.17;;;;;;;;;;5043735;28;20422;-52
2022/08/24 11:28:00;;;;;;;6.28;2.75;;;;;;;;;;5044848;28;20036;-53
2022/08/24 11:30:28;;;;;;;7.22;3.05;;;;;;;;;;4970856;28;20035;-54
2022/08/24 11:33:00;;;;;;;5.57;3.15;;;;;;;;;;5023748;28;20809;-51
2022/08/24 11:35:28;;;;;;;5.47;2.50;;;;;;;;;;5049637;28;20052;-54
2022/08/24 11:38:03;;;;;;;7.53;2.55;;;;;;;;;;5027408;28;20491;-54
2022/08/24 11:40:33;;;;;;;6.03;2.83;;;;;;;;;;5039814;28;20052;-54
2022/08/24 11:43:06;;;;;;;7.40;3.40;;;;;;;;;;5027142;28;20030;-55
2022/08/24 11:45:41;;;;;;;5.25;2.20;;;;;;;;;;5047503;28;20507;-53
2022/08/24 11:48:16;;;;;;;5.55;2.60;;;;;;;;;;5036673;28;20033;-54
2022/08/24 11:50:55;;;;;;;8.00;3.72;;;;;;;;;;5045760;28;20149;-56
2022/08/24 11:53:22;;;;;;;7.40;3.78;;;;;;;;;;5040880;28;20487;-52
2022/08/24 11:56:09;;;;;;;8.55;5.03;;;;;;;;;;5047192;28;20050;-54
2022/08/24 11:58:35;;;;;;;8.25;3.53;;;;;;;;;;5041171;28;20067;-56
2022/08/24 12:01:14;;;;;;;6.10;2.75;;;;;;;;;;5044530;28;20538;-59
2022/08/24 12:03:49;;;;;;;10.05;7.10;;;;;;;;;;5049468;28;20049;-55
2022/08/24 12:06:45;;;;;;;4.90;2.75;;;;;;;;;;5013840;28;20041;-57
2022/08/24 12:09:29;;;;;;;8.00;3.72;;;;;;;;;;4977757;28;20047;-52
2022/08/24 12:12:14;;;;;;;7.55;4.70;;;;;;;;;;5039931;28;20462;-54
2022/08/24 12:14:46;;;;;;;8.02;2.90;;;;;;;;;;5038289;28;20053;-57
2022/08/24 12:17:42;;;;;;;5.10;2.50;;;;;;;;;;5050237;28;20041;-57
2022/08/24 12:20:31;;;;;;;6.03;2.47;;;;;;;;;;4989013;28;20069;-55
2022/08/24 12:22:59;;;;;;;4.32;1.98;;;;;;;;;;5042386;28;20041;-55
2022/08/24 12:28:14;;;;;;;4.53;1.83;;;;;;;;;;5050762;28;20073;-57
2022/08/24 12:30:40;;;;;;;4.40;1.73;;;;;;;;;;5042931;28;20044;-55
2022/08/24 12:33:09;;;;;;;4.97;1.67;;;;;;;;;;5041812;28;20037;-53
2022/08/24 12:35:44;;;;;;;3.90;1.50;;;;;;;;;;5043295;28;20045;-57
2022/08/24 12:38:22;;;;;;;4.63;1.52;;;;;;;;;;5041050;28;20485;-55
2022/08/24 12:41:07;;;;;;;4.53;1.40;;;;;;;;;;5040108;28;20045;-58
2022/08/24 12:43:39;;;;;;;5.20;1.60;;;;;;;;;;5044825;28;20430;-58
2022/08/24 12:46:05;;;;;;;3.92;1.65;;;;;;;;;;5044358;28;20123;-56
2022/08/24 12:48:38;;;;;;;3.55;1.30;;;;;;;;;;5023712;28;20094;-56
2022/08/24 12:51:22;;;;;;;5.85;1.10;;;;;;;;;;5037828;28;20041;-54
2022/08/24 12:54:20;;;;;;;2.50;1.05;;;;;;;;;;5043127;28;20041;-51
2022/08/24 12:57:07;;;;;;;5.07;1.30;;;;;;;;;;5006190;28;20045;-52
2022/08/24 12:59:39;;;;;;;3.92;1.20;;;;;;;;;;5033933;28;20116;-56
2022/08/24 13:02:14;;;;;;;4.23;1.50;;;;;;;;;;5049870;28;20033;-53
2022/08/24 13:04:46;;;;;;;4.10;1.30;;;;;;;;;;5042266;28;20272;-52
2022/08/24 13:07:19;;;;;;;2.88;1.05;;;;;;;;;;5049234;28;20037;-51
2022/08/24 13:09:51;;;;;;;3.05;1.30;;;;;;;;;;5030574;28;20122;-53
2022/08/24 13:12:48;;;;;;;3.72;1.13;;;;;;;;;;5041382;28;20071;-55
2022/08/24 13:15:20;;;;;;;2.25;1.00;;;;;;;;;;5031912;28;20037;-52
2022/08/24 13:17:46;;;;;;;4.32;1.00;;;;;;;;;;5039894;28;20040;-52
2022/08/24 13:20:24;;;;;;;7.63;1.58;;;;;;;;;;5039223;28;20133;-51
2022/08/24 13:22:59;;;;;;;2.45;0.98;;;;;;;;;;5050150;28;20032;-51
2022/08/24 13:25:41;;;;;;;3.35;1.00;;;;;;;;;;5044736;28;20041;-51
2022/08/24 13:28:09;;;;;;;2.83;1.55;;;;;;;;;;5049707;28;20052;-55
2022/08/24 13:30:49;;;;;;;3.17;0.82;;;;;;;;;;5036290;28;20041;-56
2022/08/24 13:33:16;;;;;;;2.78;0.95;;;;;;;;;;5082057;22;20049;-71
2022/08/24 13:35:59;;;;;;;3.95;1.20;;;;;;;;;;5030124;28;20050;-71
2022/08/24 13:38:35;;;;;;;3.83;1.08;;;;;;;;;;5010433;28;20038;-70
2022/08/24 13:41:20;;;;;;;2.15;0.90;;;;;;;;;;5010910;28;20564;-68
2022/08/24 13:44:06;;;;;;;2.03;0.90;;;;;;;;;;4991922;28;20052;-68
2022/08/24 13:46:35;;;;;;;3.03;0.90;;;;;;;;;;5009682;28;20131;-68
2022/08/24 13:49:20;;;;;;;2.58;0.90;;;45.60;99.90;;;;;;5009843;28;20427;-68
2022/08/24 13:52:36;;;;;;;2.72;1.00;;;46.90;99.90;;;;;;5010058;28;20048;-68
2022/08/24 13:55:11;;;;;;;3.05;0.90;;;;;;;;;;5010405;28;20104;-68
2022/08/24 13:57:44;;;;;;;3.00;1.00;;;;;;;;;;5009710;28;20033;-68
2022/08/24 14:00:28;;;;;;;2.58;0.98;;;;;;;;;;5009896;28;20120;-68
2022/08/24 14:02:54;;;;;;;3.42;1.00;;;;;;;;;;5003185;28;20033;-68
2022/08/24 14:05:34;;;;;;;2.72;1.00;;;;;;;;;;5014074;28;20096;-68
2022/08/24 14:08:06;;;;;;;6.07;3.90;;;;;;;;;;5013435;28;20108;-69
2022/08/24 14:10:48;;;;;;;9.07;5.50;;;;;;;;;;5013301;28;20040;-69
2022/08/24 14:13:14;;;;;;;6.95;4.72;;;;;;;;;;5013734;28;20033;-68
2022/08/24 14:18:51;;;;;;;7.95;5.45;;;;;;;;;;5013439;28;20034;-69
2022/08/24 14:21:19;;;;;;;8.50;6.20;;;;;;;;;;5013130;28;20042;-68
2022/08/24 14:23:52;;;;;;;8.15;6.47;;;;;;;;;;5011527;28;20050;-68
2022/08/24 14:26:36;;;;;;;8.40;5.85;;;;;;;;;;4996441;28;20748;-68
2022/08/24 14:29:15;;;;;;;10.00;7.00;;;;;;;;;;4995358;28;20457;-68
2022/08/24 14:32:07;;;;;;;8.43;5.95;;;;;;;;;;4997634;28;20133;-68
2022/08/24 14:34:43;;;;;;;9.07;5.78;;;;;;;;;;5001249;28;20125;-68
2022/08/24 14:37:19;;;;;;;7.68;5.25;;;;;;;;;;5003249;28;20043;-68
2022/08/24 14:39:54;;;;;;;7.65;5.07;;;;;;;;;;4997753;28;20137;-68
2022/08/24 14:42:23;;;;;;;9.45;7.05;;;;;;;;;;5003244;28;20029;-68
2022/08/24 14:45:08;;;;;;;7.53;6.57;;;;;;;;;;4997897;28;20049;-68
2022/08/24 14:47:37;;;;;;;9.75;6.15;;;;;;;;;;4998133;28;20066;-69
2022/08/24 14:50:03;;;;;;;9.02;5.75;;;;;;;;;;5008746;28;20510;-69
2022/08/24 14:52:29;;;;;;;6.85;5.50;;;;;;;;;;5004001;28;20040;-68
2022/08/24 14:55:14;;;;;;;7.57;5.38;;;;;;;;;;4999453;28;20037;-68
2022/08/24 14:57:58;;;;;;;8.02;5.63;;;;;;;;;;4996056;28;20063;-68
2022/08/24 15:00:25;;;;;;;6.65;5.20;;;;;;;;;;5005220;28;20503;-68
2022/08/24 15:02:54;;;;;;;7.85;5.18;;;;;;;;;;4998958;28;20049;-69
2022/08/24 15:05:35;;;;;;;7.80;6.25;;;;;;;;;;4984433;28;20069;-69
2022/08/24 15:08:07;;;;;;;8.15;5.40;;;;;;;;;;4998457;28;20172;-69